Portada
METAR-TAF:

METAR-TAF

Aeropuertos :

Greater Kankakee Airport

Kankakee, Illinois, Estados Unidos

latitud: 41-04-17N, longitud: 087-50-47W, altitud: 192 m

Observación

El informe se hizo hace 34 minutos, a las 20:35 UTC
Viento 8 kt del sur-suroeste, variando entre sur y oeste
Temperatura 33°C
Humedad 41%
Presión 1023 hPa
Visibilidad: 16.1 km
Nubes dispersas a una altura de 6000 ft
Nubes dispersas a una altura de 8500 ft

METAR: KIKK 192035Z AUTO 20008KT 170V270 10SM SCT060 SCT085 33/18 A3020 RMK AO2 T03260182

Hora: 16:09 (21:09 UTC)


TAF: falta

Observaciones y pronósticos meteorológicos de más de 4000 aeropuertos (mensajes METAR y TAF).

Los puntos amarillos y rojos representan las estaciones disponibles.

Ponga el ratón en el punto deseado para ver el nombre de la estación.

Haga clic para ver las observaciones y los pronósticos meteorológicos.

Para cambiar el mapa : haga clic en los botones verdes con una cruz de color negro para hacer un zoom, en el botón verde con un guión para alejar o en las flechas verdes para mapas adyacentes.


METAR-TAF: